Mylo, North Dakota
Current Conditions -  °F | °C
As of 8:15 PM on Sunday 25 Jan 2015 (Local Time) from K06D Reporting Station
Overcast Overcast  
Wind Chill: 13°   Ceiling: 400
Heat Index: 27°   Visibility: 10mi
Dew Point: 27°   Wind: 21mph
Humidity: 100%   Direction: 220°SW
Pressure: 29.68"   Gusts: 24mph
Location:  48.64°N, 99.62°W
Report Text: K06D 260215Z AUTO 22018G21KT 10SM BKN004 OVC050 M03/M03 A2968 RMK AO2
Loading
Personal Weather Stations






























Interactive Weather Map New forecast layout! Learn more

10-Day Weather Forecast

Advertisements
Track Severe Weather on mobile